Budapest, Hungary

11:23 AM CET on February 11, 2016 (GMT +0100)
Budapest | | Change Station
CLOSE
Current Station
Personal Weather Station
Location: Szentimrevaros, BUDAPEST
Elevation: 377 ft
Nearby Weather Stations

Elev 377 ft 47.48 °N, 19.05 °E | Updated 3 minutes ago

Scattered Clouds
Scattered Clouds
44.7 °F
Feels Like 37 °F
N
17.0
Wind Variable Wind from NW
Gusts 17.0 mph

Today
High -- | Low -- °F
--% Chance of Precip.
Yesterday
High -- | Low -- °F
Precip. -- in
Pressure 29.71 in
Visibility 6.2 miles
Clouds Scattered Clouds 3000 ft
Scattered Clouds 4200 ft
Windchill 37 °F
Dew Point 32.5 °F
Humidity 62%
Rainfall 0.00 in
Snow Depth Not available.
6:56 AM 4:59 PM
Waxing Crescent, 11% visible
METAR LHBP 111000Z 29019KT 9999 SCT030 SCT042 08/M00 Q1006 NOSIG
Pressure 29.71 in
Visibility 6.2 miles
Clouds Scattered Clouds 3000 ft
Scattered Clouds 4200 ft
Windchill 37 °F
Dew Point 32.5 °F
Humidity 62%
Rainfall 0.00 in
Snow Depth Not available.
6:56 AM 4:59 PM
Waxing Crescent, 11% visible
METAR LHBP 111000Z 29019KT 9999 SCT030 SCT042 08/M00 Q1006 NOSIG

10-Day Weather Forecast

Almanac

Astronomy

Feb. 11, 2016 Rise Set
Actual Time
Civil Twilight
Nautical Twilight
Astronomical Twilight
Moon
Length of Visible Light
Length of Day
Tomorrow will be .
, % of the Moon is Illuminated

Today's Extremes

Country Highs Country Lows

Community

WunderPhotos

Upload Photos

1,892,030 photos uploaded!

WunderBlog® & News

Nearby

Air Quality

  Air Quality AQ Index Pollutant
Not available.

Snow Depth

Station Depth Elevation

Earthquake Activity

City Distance Mag. Time & Date
Minimum magnitude displayed is 2.5.

Coastal Water Temperatures

Place Temperature

Stations

Nearby Weather Stations

Station Location Temp. Windchill Dew Point Humidity Wind Precip. Elev Updated Type